Time;durP1;ratioP1;P1;durP2;ratioP2;P2;SDS_P1;SDS_P2;PMS_P1;PMS_P2;Temp;Humidity;BMP_temperature;BMP_pressure;BME280_temperature;BME280_humidity;BME280_pressure;Samples;Min_cycle;Max_cycle;Signal;HPM_P1;HPM_P2
2021/03/22 00:01:14;;;;;;;28.77;4.32;;;4.70;91.00;;;;;;5037942;28;20434;-77
2021/03/22 00:03:39;;;;;;;20.52;3.65;;;4.60;91.20;;;;;;5008835;28;20478;-77
2021/03/22 00:06:05;;;;;;;24.05;4.80;;;4.60;91.20;;;;;;5033120;28;20104;-78
2021/03/22 00:08:31;;;;;;;22.08;3.97;;;4.50;91.50;;;;;;5007339;28;20033;-78
2021/03/22 00:10:56;;;;;;;24.48;3.83;;;4.50;91.60;;;;;;5050661;28;20064;-79
2021/03/22 00:13:23;;;;;;;22.83;3.20;;;4.60;91.50;;;;;;5035123;28;20480;-76
2021/03/22 00:15:49;;;;;;;31.85;3.80;;;4.60;91.40;;;;;;5024885;28;20037;-77
2021/03/22 00:18:17;;;;;;;34.97;5.50;;;4.60;91.70;;;;;;5036078;28;20043;-76
2021/03/22 00:20:42;;;;;;;29.85;4.13;;;4.50;91.60;;;;;;5008267;28;20029;-77
2021/03/22 00:23:08;;;;;;;25.20;4.00;;;4.50;91.90;;;;;;5038792;28;20550;-76
2021/03/22 00:25:33;;;;;;;23.23;3.78;;;4.50;91.90;;;;;;5025056;28;20362;-77
2021/03/22 00:27:59;;;;;;;25.63;3.85;;;4.40;92.00;;;;;;5038951;28;20124;-76
2021/03/22 00:30:27;;;;;;;26.33;3.63;;;4.40;92.10;;;;;;5034776;28;20029;-76
2021/03/22 00:32:53;;;;;;;19.73;3.97;;;4.50;91.90;;;;;;5044435;28;20029;-76
2021/03/22 00:35:19;;;;;;;15.70;2.72;;;4.50;91.80;;;;;;5051163;28;20040;-76
2021/03/22 00:37:45;;;;;;;24.67;4.72;;;4.60;91.60;;;;;;5012220;28;20409;-76
2021/03/22 00:40:14;;;;;;;22.48;3.55;;;4.50;91.60;;;;;;5058022;28;20320;-77
2021/03/22 00:42:40;;;;;;;15.18;3.25;;;4.50;91.70;;;;;;5010153;28;20493;-76
2021/03/22 00:45:07;;;;;;;23.73;3.42;;;4.60;91.60;;;;;;5034390;28;20032;-76
2021/03/22 00:47:32;;;;;;;12.50;2.17;;;4.60;91.40;;;;;;5018077;28;20060;-77
2021/03/22 00:49:58;;;;;;;16.55;3.55;;;4.70;91.20;;;;;;5042780;28;20504;-76
2021/03/22 00:52:23;;;;;;;20.60;4.03;;;4.60;91.10;;;;;;5049331;28;20050;-76
2021/03/22 00:54:49;;;;;;;14.10;2.38;;;4.60;91.40;;;;;;5053770;28;20136;-76
2021/03/22 00:57:14;;;;;;;18.42;2.88;;;4.60;91.50;;;;;;5053027;28;20035;-76
2021/03/22 00:59:40;;;;;;;20.50;3.13;;;4.60;91.60;;;;;;5053454;28;20056;-77
2021/03/22 01:02:06;;;;;;;24.90;3.60;;;4.60;91.30;;;;;;5043042;28;20477;-76
2021/03/22 01:04:32;;;;;;;15.82;2.47;;;4.60;91.40;;;;;;5026268;28;20123;-76
2021/03/22 01:06:57;;;;;;;15.45;3.28;;;4.70;91.30;;;;;;5021327;28;20132;-77
2021/03/22 01:09:23;;;;;;;23.80;3.90;;;4.60;91.50;;;;;;5055349;28;20039;-77
2021/03/22 01:11:48;;;;;;;19.70;3.03;;;4.50;91.60;;;;;;5035424;28;20078;-76
2021/03/22 01:14:14;;;;;;;21.50;3.78;;;4.50;91.70;;;;;;5050164;28;20025;-77
2021/03/22 01:16:39;;;;;;;18.77;3.10;;;4.50;91.50;;;;;;5021481;28;20025;-76
2021/03/22 01:19:22;;;;;;;26.70;3.58;;;4.50;92.10;;;;;;5051920;28;20037;-76
2021/03/22 01:21:49;;;;;;;22.48;2.55;;;4.50;91.90;;;;;;5016800;28;20057;-76
2021/03/22 01:24:16;;;;;;;24.23;2.83;;;4.60;91.60;;;;;;5043007;28;20085;-77
2021/03/22 01:26:41;;;;;;;19.85;3.90;;;4.60;91.50;;;;;;5021484;28;20087;-77
2021/03/22 01:29:09;;;;;;;18.88;3.03;;;4.60;91.40;;;;;;5046613;28;20547;-76
2021/03/22 01:31:34;;;;;;;27.60;3.55;;;4.60;91.20;;;;;;5010259;28;20037;-76
2021/03/22 01:34:00;;;;;;;28.92;3.90;;;4.60;91.40;;;;;;5033753;28;20076;-76
2021/03/22 01:36:27;;;;;;;15.68;2.50;;;4.50;91.80;;;;;;5036015;28;20079;-76
2021/03/22 01:38:54;;;;;;;16.38;2.38;;;4.50;91.60;;;;;;5011876;28;20699;-77
2021/03/22 01:41:35;;;;;;;26.83;2.85;;;4.60;91.50;;;;;;5040660;28;20496;-77
2021/03/22 01:44:21;;;;;;;22.42;4.15;;;4.50;91.90;;;;;;5038440;28;20036;-76
2021/03/22 01:46:49;;;;;;;22.37;3.70;;;4.50;92.00;;;;;;5053215;28;20082;-76
2021/03/22 01:49:15;;;;;;;14.23;2.70;;;4.50;91.80;;;;;;5052623;28;20777;-77
2021/03/22 01:51:41;;;;;;;25.98;3.20;;;4.50;92.00;;;;;;5028341;28;20033;-76
2021/03/22 01:54:07;;;;;;;22.55;2.88;;;4.60;91.80;;;;;;5033176;28;20392;-76
2021/03/22 01:56:42;;;;;;;13.55;2.72;;;4.60;91.60;;;;;;5012945;28;20021;-76
2021/03/22 01:59:09;;;;;;;22.23;3.50;;;4.60;91.60;;;;;;5017198;28;20086;-76
2021/03/22 02:01:34;;;;;;;18.13;2.78;;;4.60;92.00;;;;;;5018247;28;20037;-77
2021/03/22 02:04:00;;;;;;;21.23;2.90;;;4.60;91.80;;;;;;5018178;28;20061;-77
2021/03/22 02:06:25;;;;;;;17.02;3.05;;;4.60;91.60;;;;;;5036138;28;20029;-77
2021/03/22 02:08:51;;;;;;;25.02;3.33;;;4.60;91.80;;;;;;5008182;28;20079;-76
2021/03/22 02:11:19;;;;;;;12.38;2.00;;;4.60;92.00;;;;;;5038498;28;20116;-76
2021/03/22 02:13:45;;;;;;;22.00;2.75;;;4.60;92.00;;;;;;5041748;28;20022;-76
2021/03/22 02:16:30;;;;;;;16.67;2.83;;;4.60;91.90;;;;;;5038830;28;20079;-76
2021/03/22 02:19:25;;;;;;;13.68;1.85;;;4.60;91.60;;;;;;5026347;28;20037;-76
2021/03/22 02:22:21;;;;;;;26.63;3.97;;;4.60;91.60;;;;;;5040720;28;20048;-76
2021/03/22 02:25:25;;;;;;;12.03;3.27;;;4.50;91.90;;;;;;5051053;28;20029;-76
2021/03/22 02:28:14;;;;;;;21.13;3.83;;;4.50;92.60;;;;;;5051199;28;20663;-77
2021/03/22 02:30:42;;;;;;;24.58;4.20;;;4.60;92.60;;;;;;5054698;28;20048;-77
2021/03/22 02:33:20;;;;;;;18.73;4.10;;;4.60;92.20;;;;;;5049480;28;20082;-76
2021/03/22 02:35:58;;;;;;;25.17;5.10;;;4.60;92.20;;;;;;5054304;28;20489;-77
2021/03/22 02:38:28;;;;;;;25.27;5.38;;;4.50;92.80;;;;;;5026306;28;20021;-76
2021/03/22 02:40:57;;;;;;;19.65;4.10;;;4.50;92.50;;;;;;5030621;28;20032;-76
2021/03/22 02:43:22;;;;;;;37.30;6.82;;;4.50;92.40;;;;;;5035694;28;20495;-76
2021/03/22 02:45:48;;;;;;;23.45;5.55;;;4.50;92.60;;;;;;5032759;28;20059;-77
2021/03/22 02:48:21;;;;;;;31.13;7.80;;;4.50;93.10;;;;;;5034290;28;20029;-77
2021/03/22 02:50:47;;;;;;;32.72;7.30;;;4.40;93.00;;;;;;5011839;28;20469;-76
2021/03/22 02:53:42;;;;;;;23.17;7.45;;;4.40;93.40;;;;;;5036430;28;20048;-77
2021/03/22 02:56:19;;;;;;;25.58;9.02;;;4.40;93.30;;;;;;5055114;28;20476;-77
2021/03/22 02:58:53;;;;;;;29.55;8.55;;;4.30;93.60;;;;;;5016672;28;20063;-77
2021/03/22 03:01:32;;;;;;;22.23;7.43;;;4.30;93.50;;;;;;5048166;28;20029;-77
2021/03/22 03:03:58;;;;;;;51.90;13.95;;;4.50;93.10;;;;;;5027097;28;20049;-77
2021/03/22 03:06:46;;;;;;;32.15;10.25;;;4.50;93.10;;;;;;5038486;28;20490;-77
2021/03/22 03:09:11;;;;;;;26.88;8.95;;;4.40;93.70;;;;;;5054632;28;20059;-77
2021/03/22 03:11:37;;;;;;;18.95;6.60;;;4.40;93.40;;;;;;5056982;28;20457;-78
2021/03/22 03:14:04;;;;;;;17.67;6.88;;;4.40;93.30;;;;;;5049015;28;20138;-78
2021/03/22 03:16:30;;;;;;;29.27;10.70;;;4.50;92.80;;;;;;5012806;28;20028;-78
2021/03/22 03:18:56;;;;;;;29.13;7.65;;;4.50;93.10;;;;;;5041036;28;20124;-77
2021/03/22 03:21:22;;;;;;;19.95;7.93;;;4.50;93.30;;;;;;5036099;28;20112;-77
2021/03/22 03:23:47;;;;;;;28.67;8.55;;;4.50;92.80;;;;;;5050267;28;20025;-77
2021/03/22 03:26:13;;;;;;;26.40;7.63;;;4.50;93.00;;;;;;5054713;28;20421;-78
2021/03/22 03:28:38;;;;;;;21.60;7.53;;;4.50;92.90;;;;;;5039577;28;20473;-78
2021/03/22 03:31:04;;;;;;;14.73;5.78;;;4.50;92.70;;;;;;5027317;28;20077;-78
2021/03/22 03:33:30;;;;;;;24.90;6.97;;;4.50;92.50;;;;;;5035346;28;20029;-77
2021/03/22 03:35:57;;;;;;;29.10;8.60;;;4.50;92.60;;;;;;5040545;28;20037;-77
2021/03/22 03:38:23;;;;;;;26.35;6.97;;;4.50;92.60;;;;;;5056213;28;20024;-78
2021/03/22 03:40:48;;;;;;;30.08;8.35;;;4.40;93.00;;;;;;5009338;28;20030;-77
2021/03/22 03:43:14;;;;;;;25.70;8.18;;;4.40;93.10;;;;;;5035025;28;20154;-77
2021/03/22 03:45:41;;;;;;;26.00;7.57;;;4.30;93.40;;;;;;5035686;28;20496;-78
2021/03/22 03:48:07;;;;;;;26.45;6.63;;;4.20;93.70;;;;;;5017645;28;20028;-78
2021/03/22 03:50:33;;;;;;;30.65;7.15;;;4.20;93.70;;;;;;5012544;28;20113;-77
2021/03/22 03:52:59;;;;;;;33.58;8.00;;;4.20;93.70;;;;;;5020680;28;20517;-77
2021/03/22 03:55:26;;;;;;;23.65;6.78;;;4.20;94.10;;;;;;5058001;28;20029;-77
2021/03/22 03:57:52;;;;;;;25.58;6.70;;;4.20;94.20;;;;;;5025650;28;20105;-77
2021/03/22 04:00:28;;;;;;;17.45;5.40;;;4.20;94.40;;;;;;5057639;28;20441;-78
2021/03/22 04:02:54;;;;;;;22.70;5.95;;;4.20;94.00;;;;;;5051438;28;20147;-78
2021/03/22 04:05:20;;;;;;;20.85;5.20;;;4.20;94.40;;;;;;5053590;28;20126;-77
2021/03/22 04:07:46;;;;;;;24.15;8.18;;;4.20;94.00;;;;;;5040320;28;20032;-77
2021/03/22 04:10:12;;;;;;;21.20;5.50;;;4.30;94.00;;;;;;5054449;28;20392;-77
2021/03/22 04:12:37;;;;;;;18.70;5.38;;;4.30;93.90;;;;;;5023980;28;20121;-78
2021/03/22 04:15:09;;;;;;;22.33;6.75;;;4.30;94.00;;;;;;5019405;28;20119;-78
2021/03/22 04:17:35;;;;;;;20.10;5.30;;;4.30;93.90;;;;;;5009271;28;20037;-77
2021/03/22 04:20:00;;;;;;;21.67;6.97;;;4.30;94.00;;;;;;5034693;28;20409;-77
2021/03/22 04:22:26;;;;;;;20.98;7.97;;;4.30;93.80;;;;;;5057276;28;20382;-77
2021/03/22 04:24:51;;;;;;;22.52;6.30;;;4.30;93.70;;;;;;5041362;28;20032;-77
2021/03/22 04:27:17;;;;;;;25.23;5.45;;;4.40;93.70;;;;;;5034048;28;20112;-77
2021/03/22 04:29:42;;;;;;;22.15;6.55;;;4.30;93.60;;;;;;5055233;28;20052;-77
2021/03/22 04:32:09;;;;;;;16.38;5.20;;;4.40;93.80;;;;;;5054135;28;20052;-77
2021/03/22 04:34:34;;;;;;;17.33;4.90;;;4.40;93.70;;;;;;5036071;28;20033;-77
2021/03/22 04:37:01;;;;;;;18.10;5.72;;;4.40;93.90;;;;;;5028185;28;20099;-77
2021/03/22 04:39:26;;;;;;;29.58;6.60;;;4.40;93.60;;;;;;5033346;28;20043;-77
2021/03/22 04:41:52;;;;;;;30.42;6.95;;;4.30;94.10;;;;;;5043919;28;20403;-77
2021/03/22 04:44:17;;;;;;;19.92;7.32;;;4.40;93.60;;;;;;5044370;28;20048;-78
2021/03/22 04:46:44;;;;;;;16.67;5.88;;;4.30;93.60;;;;;;5035080;28;20025;-77
2021/03/22 04:49:10;;;;;;;30.33;8.38;;;4.40;93.80;;;;;;5040546;28;20115;-78
2021/03/22 04:51:35;;;;;;;24.50;8.75;;;4.30;94.10;;;;;;5024992;28;20470;-77
2021/03/22 04:54:04;;;;;;;21.23;7.10;;;4.30;94.10;;;;;;5018059;28;20044;-78
2021/03/22 04:56:29;;;;;;;31.92;7.45;;;4.30;93.90;;;;;;5024797;28;20375;-77
2021/03/22 04:58:55;;;;;;;21.38;6.75;;;4.30;93.50;;;;;;5038930;28;20036;-78
2021/03/22 05:01:20;;;;;;;30.75;9.27;;;4.20;93.70;;;;;;5054071;28;20574;-76
2021/03/22 05:03:46;;;;;;;27.13;9.73;;;4.20;93.80;;;;;;5035130;28;20055;-76
2021/03/22 05:06:11;;;;;;;29.10;8.30;;;4.20;93.80;;;;;;5040175;28;20052;-76
2021/03/22 05:08:37;;;;;;;21.52;6.93;;;4.20;94.00;;;;;;5010925;28;20033;-77
2021/03/22 05:11:02;;;;;;;19.90;7.90;;;4.10;94.10;;;;;;5033566;28;20032;-76
2021/03/22 05:13:28;;;;;;;27.45;9.02;;;4.10;93.70;;;;;;5020328;28;20024;-77
2021/03/22 05:15:54;;;;;;;25.02;10.07;;;4.00;94.10;;;;;;5008549;28;20112;-77
2021/03/22 05:18:20;;;;;;;26.83;10.90;;;3.90;94.50;;;;;;5022928;28;20465;-77
2021/03/22 05:20:50;;;;;;;40.47;12.75;;;3.90;94.50;;;;;;5025600;28;20044;-76
2021/03/22 05:23:18;;;;;;;26.42;9.98;;;3.90;95.00;;;;;;5037526;28;20025;-76
2021/03/22 05:25:43;;;;;;;25.27;9.15;;;3.90;95.20;;;;;;5045141;28;20481;-77
2021/03/22 05:28:09;;;;;;;30.90;13.00;;;4.10;94.50;;;;;;5037452;28;20059;-76
2021/03/22 05:30:35;;;;;;;30.23;10.70;;;4.00;94.40;;;;;;5009438;28;20064;-77
2021/03/22 05:33:03;;;;;;;43.83;11.63;;;4.00;94.70;;;;;;5017285;28;20104;-77
2021/03/22 05:35:29;;;;;;;29.02;9.80;;;4.00;94.40;;;;;;5015928;28;20489;-77
2021/03/22 05:37:55;;;;;;;37.97;12.25;;;4.00;95.40;;;;;;5036941;28;20140;-77
2021/03/22 05:40:23;;;;;;;37.70;13.77;;;4.00;95.40;;;;;;5034057;28;20033;-77
2021/03/22 05:42:55;;;;;;;41.38;13.55;;;4.00;95.60;;;;;;5007785;28;20117;-77
2021/03/22 05:45:40;;;;;;;41.25;15.50;;;3.90;95.70;;;;;;5053562;28;20093;-78
2021/03/22 05:48:11;;;;;;;43.92;14.32;;;4.00;95.60;;;;;;5020710;28;20078;-78
2021/03/22 05:51:14;;;;;;;35.95;14.23;;;4.00;95.30;;;;;;5060921;28;20036;-78
2021/03/22 05:53:41;;;;;;;28.63;10.80;;;4.10;95.10;;;;;;5070294;28;20029;-78
2021/03/22 05:56:11;;;;;;;42.15;15.82;;;4.00;95.30;;;;;;5029765;28;20047;-78
2021/03/22 05:58:57;;;;;;;43.78;15.10;;;4.00;95.30;;;;;;5029468;28;20075;-78
2021/03/22 06:01:34;;;;;;;39.35;12.88;;;4.00;95.30;;;;;;5032134;28;20032;-78
2021/03/22 06:04:34;;;;;;;32.28;14.07;;;4.10;94.60;;;;;;5012203;28;20087;-79
2021/03/22 06:07:00;;;;;;;35.58;14.10;;;4.10;94.70;;;;;;5050114;28;20033;-79
2021/03/22 06:09:44;;;;;;;39.15;14.38;;;4.00;94.60;;;;;;5014521;28;20033;-80
2021/03/22 06:12:43;;;;;;;36.65;15.48;;;4.00;95.10;;;;;;5020377;28;20455;-79
2021/03/22 06:15:35;;;;;;;46.75;15.60;;;3.90;95.60;;;;;;5021846;28;20087;-79
2021/03/22 06:18:34;;;;;;;37.70;12.38;;;3.90;96.00;;;;;;5018485;28;20508;-80
2021/03/22 06:21:08;;;;;;;34.05;12.88;;;3.90;95.80;;;;;;5043722;28;20038;-79
2021/03/22 06:23:44;;;;;;;40.67;14.32;;;3.90;96.00;;;;;;5057796;28;20032;-79
2021/03/22 06:26:18;;;;;;;49.72;16.75;;;3.90;96.20;;;;;;5016348;28;20688;-79
2021/03/22 06:28:45;;;;;;;38.25;15.77;;;3.90;96.20;;;;;;5045595;28;20052;-79
2021/03/22 06:31:15;;;;;;;51.03;18.48;;;3.90;96.40;;;;;;5018353;28;20040;-80
2021/03/22 06:33:48;;;;;;;39.92;17.98;;;3.90;96.60;;;;;;5021219;28;20040;-79
2021/03/22 06:36:16;;;;;;;47.80;16.92;;;4.00;96.90;;;;;;5025615;28;20024;-78
2021/03/22 06:38:45;;;;;;;41.72;13.10;;;4.00;97.00;;;;;;5020921;28;20491;-79
2021/03/22 06:41:34;;;;;;;40.65;15.30;;;4.00;96.80;;;;;;5010872;28;20028;-78
2021/03/22 06:44:03;;;;;;;35.33;12.13;;;4.00;97.20;;;;;;5036109;28;20109;-78
2021/03/22 06:46:28;;;;;;;35.88;12.07;;;4.10;97.20;;;;;;5036229;28;20032;-79
2021/03/22 06:49:02;;;;;;;45.65;12.18;;;4.10;97.10;;;;;;5034207;28;20033;-79
2021/03/22 06:51:28;;;;;;;30.83;11.88;;;4.10;97.10;;;;;;5050245;28;20128;-79
2021/03/22 06:53:57;;;;;;;39.70;12.55;;;4.20;97.20;;;;;;5035228;28;20601;-79
2021/03/22 06:56:25;;;;;;;25.45;10.93;;;4.20;97.10;;;;;;5020295;28;20032;-78
2021/03/22 06:59:17;;;;;;;41.08;13.35;;;4.30;97.00;;;;;;5052086;28;20037;-78
2021/03/22 07:01:44;;;;;;;35.08;11.77;;;4.40;97.00;;;;;;5041820;28;20035;-78
2021/03/22 07:04:24;;;;;;;30.63;10.80;;;4.40;97.10;;;;;;5025602;28;20031;-79
2021/03/22 07:07:11;;;;;;;29.08;12.35;;;4.40;97.10;;;;;;5043562;28;20029;-78
2021/03/22 07:09:47;;;;;;;30.85;11.18;;;4.50;97.30;;;;;;5028757;28;20115;-79
2021/03/22 07:12:35;;;;;;;30.35;9.85;;;4.60;97.30;;;;;;5025542;28;20028;-78
2021/03/22 07:15:14;;;;;;;27.83;10.13;;;4.70;97.20;;;;;;5053439;28;20526;-78
2021/03/22 07:17:40;;;;;;;22.55;10.00;;;4.70;97.40;;;;;;5031087;28;20868;-78
2021/03/22 07:20:16;;;;;;;26.48;10.73;;;4.80;97.40;;;;;;5022649;28;20090;-78
2021/03/22 07:22:41;;;;;;;25.60;8.32;;;4.80;97.50;;;;;;5024109;28;20094;-81
2021/03/22 07:25:16;;;;;;;24.88;9.75;;;4.90;97.40;;;;;;5018142;28;20548;-79
2021/03/22 07:27:43;;;;;;;25.30;7.90;;;5.00;97.40;;;;;;5053198;28;20036;-79
2021/03/22 07:30:25;;;;;;;23.85;10.23;;;5.00;97.40;;;;;;5029767;28;20044;-79
2021/03/22 07:33:19;;;;;;;24.55;10.95;;;5.10;97.60;;;;;;5039321;28;20400;-79
2021/03/22 07:36:08;;;;;;;31.52;9.57;;;5.20;97.70;;;;;;5051669;28;20090;-79
2021/03/22 07:38:56;;;;;;;29.92;10.82;;;5.20;97.60;;;;;;5047357;28;20029;-79
2021/03/22 07:42:01;;;;;;;20.73;10.32;;;5.30;97.70;;;;;;5035558;28;20036;-79
2021/03/22 07:44:39;;;;;;;22.55;10.77;;;5.40;97.90;;;;;;5050038;28;20063;-79
2021/03/22 07:47:15;;;;;;;19.98;10.60;;;5.50;98.00;;;;;;5045389;28;20116;-79
2021/03/22 07:50:04;;;;;;;27.05;9.43;;;5.50;98.20;;;;;;5037506;28;20029;-79
2021/03/22 07:52:41;;;;;;;28.65;9.90;;;5.50;98.10;;;;;;5031297;28;20029;-80
2021/03/22 07:55:22;;;;;;;9.82;5.20;;;5.60;98.10;;;;;;5039815;28;20314;-79
2021/03/22 07:57:50;;;;;;;14.70;6.35;;;5.70;98.00;;;;;;5016503;28;20045;-79
2021/03/22 08:00:24;;;;;;;10.23;5.15;;;5.80;98.10;;;;;;5050081;28;20489;-79
2021/03/22 08:03:25;;;;;;;15.02;5.53;;;5.80;98.00;;;;;;5052915;28;20107;-78
2021/03/22 08:05:58;;;;;;;12.80;7.13;;;5.80;97.90;;;;;;5023865;28;20558;-78
2021/03/22 08:08:34;;;;;;;14.70;6.03;;;5.90;97.90;;;;;;5049592;28;20413;-79
2021/03/22 08:11:04;;;;;;;19.85;8.57;;;5.90;97.60;;;;;;5055043;28;20959;-78
2021/03/22 08:13:48;;;;;;;13.93;5.93;;;5.90;98.20;;;;;;5029464;28;20032;-78
2021/03/22 08:16:21;;;;;;;14.25;6.13;;;5.90;98.00;;;;;;5055725;28;20041;-79
2021/03/22 08:18:58;;;;;;;15.05;5.03;;;6.00;98.00;;;;;;5033835;28;20532;-78
2021/03/22 08:21:52;;;;;;;13.30;4.65;;;6.00;97.50;;;;;;5035595;28;20029;-78
2021/03/22 08:24:38;;;;;;;13.75;4.45;;;6.10;97.80;;;;;;5051479;28;20032;-78
2021/03/22 08:27:18;;;;;;;10.10;4.28;;;6.10;97.80;;;;;;5051683;28;20025;-79
2021/03/22 08:29:57;;;;;;;8.43;3.75;;;6.20;97.80;;;;;;5028179;28;21578;-78
2021/03/22 08:33:08;;;;;;;13.35;4.20;;;6.20;97.60;;;;;;5037005;28;20449;-78
2021/03/22 08:35:38;;;;;;;14.40;3.60;;;6.20;97.50;;;;;;4923158;29;20613;-79
2021/03/22 08:38:10;;;;;;;12.02;3.72;;;6.20;97.20;;;;;;4927393;28;20055;-78
2021/03/22 08:40:41;;;;;;;15.75;3.60;;;6.20;97.40;;;;;;4976255;28;20029;-78
2021/03/22 08:43:36;;;;;;;10.85;3.30;;;6.30;97.30;;;;;;5066707;28;20115;-78
2021/03/22 08:46:05;;;;;;;7.40;3.35;;;6.30;97.30;;;;;;5054593;28;20029;-78
2021/03/22 08:48:30;;;;;;;10.65;3.80;;;6.50;97.50;;;;;;5051600;28;20035;-78
2021/03/22 08:50:59;;;;;;;9.73;3.70;;;6.60;97.40;;;;;;5034804;28;20038;-78
2021/03/22 08:53:32;;;;;;;11.60;3.60;;;6.60;97.30;;;;;;5038169;28;20029;-78
2021/03/22 08:56:01;;;;;;;7.93;3.70;;;6.60;97.20;;;;;;5021327;28;20040;-78
2021/03/22 08:58:34;;;;;;;9.93;3.30;;;6.70;97.20;;;;;;5030922;28;20108;-79
2021/03/22 09:01:09;;;;;;;9.27;2.92;;;6.80;97.20;;;;;;5015479;28;20044;-79
2021/03/22 09:03:40;;;;;;;12.77;4.03;;;6.90;97.30;;;;;;5050946;28;20480;-79
2021/03/22 09:06:27;;;;;;;10.20;3.10;;;6.90;96.80;;;;;;5053773;28;20032;-79
2021/03/22 09:08:59;;;;;;;7.07;3.40;;;7.00;97.30;;;;;;5035188;28;20044;-79
2021/03/22 09:11:26;;;;;;;4.68;2.65;;;7.30;97.50;;;;;;5047078;28;20036;-79
2021/03/22 09:13:55;;;;;;;6.72;3.78;;;7.40;97.30;;;;;;5052728;28;20040;-79
2021/03/22 09:16:24;;;;;;;5.78;2.97;;;7.50;96.90;;;;;;5037677;28;20502;-78
2021/03/22 09:19:09;;;;;;;10.25;3.13;;;7.50;97.10;;;;;;5051855;28;20516;-78
2021/03/22 09:21:44;;;;;;;7.57;2.78;;;7.70;96.80;;;;;;5046607;28;20591;-78
2021/03/22 09:24:42;;;;;;;4.75;2.70;;;7.70;96.80;;;;;;5015791;28;20173;-79
2021/03/22 09:27:13;;;;;;;5.50;2.60;;;7.80;96.50;;;;;;5068807;28;20029;-78
2021/03/22 09:29:43;;;;;;;4.80;2.15;;;7.90;96.30;;;;;;5048125;28;20104;-78
2021/03/22 09:32:23;;;;;;;5.32;2.55;;;7.90;96.30;;;;;;5047983;28;20076;-78
2021/03/22 09:34:49;;;;;;;3.63;1.50;;;8.00;96.10;;;;;;5052003;28;20060;-78
2021/03/22 09:37:49;;;;;;;6.90;1.98;;;8.10;96.50;;;;;;5040335;28;20020;-78
2021/03/22 09:40:21;;;;;;;4.25;1.75;;;8.10;96.20;;;;;;5046103;28;20123;-78
2021/03/22 09:43:07;;;;;;;5.57;2.10;;;8.20;96.20;;;;;;5037924;28;20043;-78
2021/03/22 09:45:37;;;;;;;5.65;2.28;;;8.20;96.10;;;;;;5041758;28;20044;-78
2021/03/22 09:48:16;;;;;;;7.95;2.47;;;8.20;96.00;;;;;;5057013;28;20029;-79
2021/03/22 09:50:46;;;;;;;6.30;2.45;;;8.20;95.70;;;;;;5051818;28;20488;-79
2021/03/22 09:53:13;;;;;;;6.35;2.40;;;8.30;95.70;;;;;;5012489;28;20071;-78
2021/03/22 09:55:44;;;;;;;6.05;1.95;;;8.40;96.00;;;;;;5047197;28;20033;-79
2021/03/22 09:58:30;;;;;;;6.13;2.60;;;8.40;95.90;;;;;;5045729;28;20043;-77
2021/03/22 10:00:56;;;;;;;7.90;2.63;;;8.40;95.00;;;;;;5051618;28;20112;-77
2021/03/22 10:03:35;;;;;;;7.57;2.53;;;8.40;95.00;;;;;;5053597;28;20028;-77
2021/03/22 10:06:07;;;;;;;6.93;2.55;;;8.40;94.40;;;;;;5052253;28;20420;-77
2021/03/22 10:08:35;;;;;;;7.70;2.67;;;8.30;94.10;;;;;;5031060;28;20044;-78
2021/03/22 10:11:21;;;;;;;7.20;2.50;;;8.30;94.10;;;;;;5008619;28;20037;-79
2021/03/22 10:13:47;;;;;;;7.55;2.53;;;8.30;93.80;;;;;;5048046;28;20039;-77
2021/03/22 10:16:31;;;;;;;5.65;2.28;;;8.30;94.20;;;;;;5052643;28;20109;-77
2021/03/22 10:19:01;;;;;;;9.45;1.90;;;8.40;94.20;;;;;;5015158;28;20029;-77
2021/03/22 10:22:02;;;;;;;3.63;1.30;;;8.50;94.00;;;;;;5034939;28;20036;-77
2021/03/22 10:24:45;;;;;;;4.20;1.40;;;8.50;93.90;;;;;;4985970;28;20116;-78
2021/03/22 10:27:26;;;;;;;4.10;1.23;;;8.50;94.00;;;;;;5029935;28;20044;-78
2021/03/22 10:30:05;;;;;;;3.15;1.00;;;8.60;93.90;;;;;;5046624;28;20522;-78
2021/03/22 10:32:31;;;;;;;5.32;1.40;;;8.70;93.80;;;;;;5011566;28;20053;-78
2021/03/22 10:35:11;;;;;;;3.33;1.40;;;8.70;92.80;;;;;;5055106;28;20057;-78
2021/03/22 10:37:42;;;;;;;3.88;1.10;;;8.80;93.00;;;;;;5029395;28;20419;-78
2021/03/22 10:40:25;;;;;;;5.45;1.58;;;8.90;92.40;;;;;;5013346;28;20092;-78
2021/03/22 10:42:51;;;;;;;1.80;1.20;;;9.00;92.80;;;;;;5046432;28;20056;-78
2021/03/22 10:45:22;;;;;;;5.90;3.22;;;9.00;93.00;;;;;;5038908;28;20029;-77
2021/03/22 10:47:48;;;;;;;6.25;3.25;;;9.10;93.10;;;;;;5053062;28;20327;-77
2021/03/22 10:50:23;;;;;;;4.47;2.78;;;9.20;92.20;;;;;;5035952;28;20081;-78
2021/03/22 10:53:20;;;;;;;3.90;2.15;;;9.20;92.30;;;;;;5033435;28;20045;-77
2021/03/22 10:55:47;;;;;;;4.53;2.10;;;9.30;91.80;;;;;;5016395;28;20549;-78
2021/03/22 10:58:21;;;;;;;3.72;1.80;;;9.40;92.00;;;;;;5035047;28;20032;-78
2021/03/22 11:00:47;;;;;;;5.13;1.85;;;9.40;92.30;;;;;;5007407;28;20141;-78
2021/03/22 11:03:19;;;;;;;5.45;1.83;;;9.50;93.00;;;;;;5034161;28;20552;-78
2021/03/22 11:05:45;;;;;;;8.63;2.20;;;9.60;92.50;;;;;;5020137;28;20060;-77
2021/03/22 11:08:31;;;;;;;3.60;1.60;;;9.80;91.60;;;;;;5040363;28;20114;-77
2021/03/22 11:11:02;;;;;;;4.63;1.50;;;9.90;92.10;;;;;;5030318;28;20120;-78
2021/03/22 11:13:29;;;;;;;6.00;2.00;;;10.00;91.60;;;;;;5045814;28;20105;-78
2021/03/22 11:15:54;;;;;;;5.43;2.33;;;10.10;91.30;;;;;;5030950;28;20091;-78
2021/03/22 11:18:20;;;;;;;5.43;2.38;;;10.10;91.00;;;;;;5050293;28;20115;-77
2021/03/22 11:20:53;;;;;;;5.28;2.42;;;10.10;90.50;;;;;;5011218;28;20040;-77
2021/03/22 11:23:28;;;;;;;6.75;3.10;;;10.00;89.10;;;;;;5030974;28;20123;-77
2021/03/22 11:25:54;;;;;;;6.90;3.05;;;10.00;89.50;;;;;;5033333;28;20170;-77
2021/03/22 11:28:20;;;;;;;8.32;3.67;;;10.00;91.00;;;;;;5036935;28;20451;-77
2021/03/22 11:30:54;;;;;;;8.13;3.63;;;10.00;91.00;;;;;;5051914;28;20071;-77
2021/03/22 11:33:31;;;;;;;9.32;3.08;;;10.10;90.20;;;;;;5048399;28;20376;-78
2021/03/22 11:36:19;;;;;;;5.53;2.13;;;10.10;89.50;;;;;;5041853;28;20057;-77
2021/03/22 11:38:53;;;;;;;4.45;1.50;;;10.00;87.80;;;;;;5048035;28;20029;-77
2021/03/22 11:41:35;;;;;;;4.40;1.40;;;10.10;88.30;;;;;;5049808;28;20449;-77
2021/03/22 11:44:25;;;;;;;5.97;1.65;;;10.10;90.60;;;;;;5016441;28;20025;-78
2021/03/22 11:46:53;;;;;;;2.90;1.20;;;10.20;91.00;;;;;;5041155;28;20078;-78
2021/03/22 11:49:36;;;;;;;3.90;1.42;;;10.30;91.20;;;;;;5035450;28;20098;-78
2021/03/22 11:52:02;;;;;;;5.82;1.95;;;10.50;90.10;;;;;;5051484;28;20393;-78
2021/03/22 11:54:31;;;;;;;3.83;1.90;;;10.60;90.30;;;;;;5028567;28;20025;-78
2021/03/22 11:57:01;;;;;;;4.38;1.50;;;10.70;90.20;;;;;;5017766;28;20033;-78
2021/03/22 11:59:27;;;;;;;8.35;2.00;;;10.70;88.40;;;;;;5034109;28;20041;-77
2021/03/22 12:02:19;;;;;;;3.10;1.83;;;10.60;87.40;;;;;;5027474;28;20047;-78
2021/03/22 12:05:23;;;;;;;4.47;1.83;;;10.60;88.80;;;;;;5049283;28;20546;-78
2021/03/22 12:07:49;;;;;;;4.55;1.80;;;10.50;85.40;;;;;;5018710;28;20133;-78
2021/03/22 12:10:23;;;;;;;4.30;1.65;;;10.50;87.30;;;;;;5048536;28;20553;-77
2021/03/22 12:12:49;;;;;;;2.92;1.48;;;10.40;84.30;;;;;;5011195;28;20037;-77
2021/03/22 12:15:16;;;;;;;2.83;1.35;;;10.30;87.00;;;;;;5047748;28;20396;-77
2021/03/22 12:17:41;;;;;;;2.15;1.42;;;10.30;88.20;;;;;;5016288;28;20025;-77
2021/03/22 12:20:09;;;;;;;4.93;1.30;;;10.30;88.70;;;;;;5011331;28;20045;-77
2021/03/22 12:22:34;;;;;;;4.22;1.70;;;10.30;88.20;;;;;;5026564;28;20028;-77
2021/03/22 12:25:00;;;;;;;4.55;1.80;;;10.20;85.80;;;;;;5011396;28;20362;-77
2021/03/22 12:27:25;;;;;;;5.10;1.45;;;10.10;86.30;;;;;;5056266;28;20994;-77
2021/03/22 12:29:51;;;;;;;5.78;1.55;;;10.10;87.30;;;;;;5035753;28;20036;-77
2021/03/22 12:32:21;;;;;;;5.25;1.35;;;10.20;88.30;;;;;;5037476;28;20090;-77
2021/03/22 12:34:46;;;;;;;3.33;1.35;;;10.20;88.10;;;;;;5035911;28;20507;-77
2021/03/22 12:37:23;;;;;;;7.68;1.65;;;10.10;88.00;;;;;;5052080;28;20033;-77
2021/03/22 12:39:48;;;;;;;6.80;1.50;;;10.20;88.40;;;;;;5052612;28;20074;-77
2021/03/22 12:42:14;;;;;;;2.60;1.50;;;10.20;86.90;;;;;;5054912;28;20060;-77
2021/03/22 12:44:40;;;;;;;4.43;1.73;;;10.20;85.40;;;;;;5018280;28;20488;-77
2021/03/22 12:47:06;;;;;;;3.75;1.48;;;10.20;85.90;;;;;;5032595;28;20482;-77
2021/03/22 12:49:31;;;;;;;2.40;1.30;;;10.20;85.40;;;;;;5037366;28;20091;-77
2021/03/22 12:51:57;;;;;;;3.72;1.40;;;10.30;84.20;;;;;;5055500;28;20072;-77
2021/03/22 12:54:23;;;;;;;5.30;1.48;;;10.30;83.50;;;;;;5030969;28;20033;-77
2021/03/22 12:56:48;;;;;;;1.85;1.20;;;10.30;85.50;;;;;;5015934;28;20466;-77
2021/03/22 12:59:31;;;;;;;3.60;1.52;;;10.40;84.30;;;;;;5040369;28;20425;-77
2021/03/22 13:01:57;;;;;;;1.75;1.00;;;10.50;84.40;;;;;;5028150;28;20036;-77
2021/03/22 13:04:23;;;;;;;2.72;1.10;;;10.50;83.70;;;;;;5050730;28;20032;-77
2021/03/22 13:06:48;;;;;;;3.33;1.10;;;10.60;83.80;;;;;;5014760;28;20119;-77
2021/03/22 13:09:14;;;;;;;2.67;1.20;;;10.60;83.70;;;;;;5042229;28;20472;-77
2021/03/22 13:11:39;;;;;;;2.53;1.13;;;10.60;85.50;;;;;;5021909;28;20022;-77
2021/03/22 13:14:05;;;;;;;3.78;1.50;;;10.60;84.80;;;;;;5063985;28;20025;-77